sensor_id;sensor_type;location;lat;lon;timestamp;temperature;humidity
7562;DHT22;3822;48.784;9.174;2023-02-03T00:00:47;7.70;93.80
7562;DHT22;3822;48.784;9.174;2023-02-03T00:03:13;7.70;93.90
7562;DHT22;3822;48.784;9.174;2023-02-03T00:05:40;7.70;93.90
7562;DHT22;3822;48.784;9.174;2023-02-03T00:08:07;7.70;93.90
7562;DHT22;3822;48.784;9.174;2023-02-03T00:10:35;7.70;93.80
7562;DHT22;3822;48.784;9.174;2023-02-03T00:13:02;7.70;93.80
7562;DHT22;3822;48.784;9.174;2023-02-03T00:15:28;7.70;93.80
7562;DHT22;3822;48.784;9.174;2023-02-03T00:17:55;7.80;93.80
7562;DHT22;3822;48.784;9.174;2023-02-03T00:20:21;7.70;93.80
7562;DHT22;3822;48.784;9.174;2023-02-03T00:22:47;7.80;93.80
7562;DHT22;3822;48.784;9.174;2023-02-03T00:25:13;8.00;93.90
7562;DHT22;3822;48.784;9.174;2023-02-03T00:27:40;7.70;93.70
7562;DHT22;3822;48.784;9.174;2023-02-03T00:30:06;7.70;93.70
7562;DHT22;3822;48.784;9.174;2023-02-03T00:32:33;7.70;93.70
7562;DHT22;3822;48.784;9.174;2023-02-03T00:34:59;7.70;93.70
7562;DHT22;3822;48.784;9.174;2023-02-03T00:37:25;7.70;93.70
7562;DHT22;3822;48.784;9.174;2023-02-03T00:39:52;7.70;93.70
7562;DHT22;3822;48.784;9.174;2023-02-03T00:42:18;7.80;93.70
7562;DHT22;3822;48.784;9.174;2023-02-03T00:44:44;7.70;93.60
7562;DHT22;3822;48.784;9.174;2023-02-03T00:47:11;7.70;93.60
7562;DHT22;3822;48.784;9.174;2023-02-03T00:49:37;7.70;93.60
7562;DHT22;3822;48.784;9.174;2023-02-03T00:52:03;7.80;93.70
7562;DHT22;3822;48.784;9.174;2023-02-03T00:54:30;7.70;93.60
7562;DHT22;3822;48.784;9.174;2023-02-03T00:56:56;7.70;93.60
7562;DHT22;3822;48.784;9.174;2023-02-03T00:59:22;7.70;93.70
7562;DHT22;3822;48.784;9.174;2023-02-03T01:01:49;7.70;93.70
7562;DHT22;3822;48.784;9.174;2023-02-03T01:04:15;7.70;93.70
7562;DHT22;3822;48.784;9.174;2023-02-03T01:06:42;7.70;93.70
7562;DHT22;3822;48.784;9.174;2023-02-03T01:09:08;7.70;93.70
7562;DHT22;3822;48.784;9.174;2023-02-03T01:11:35;7.70;93.70
7562;DHT22;3822;48.784;9.174;2023-02-03T01:14:01;7.70;93.70
7562;DHT22;3822;48.784;9.174;2023-02-03T01:16:28;7.80;93.70
7562;DHT22;3822;48.784;9.174;2023-02-03T01:18:55;7.80;93.70
7562;DHT22;3822;48.784;9.174;2023-02-03T01:21:22;7.80;93.70
7562;DHT22;3822;48.784;9.174;2023-02-03T01:23:50;7.70;93.70
7562;DHT22;3822;48.784;9.174;2023-02-03T01:26:18;7.80;93.70
7562;DHT22;3822;48.784;9.174;2023-02-03T01:28:53;7.70;93.70
7562;DHT22;3822;48.784;9.174;2023-02-03T01:31:21;7.70;93.70
7562;DHT22;3822;48.784;9.174;2023-02-03T01:33:50;7.70;93.70
7562;DHT22;3822;48.784;9.174;2023-02-03T01:36:19;7.70;93.70
7562;DHT22;3822;48.784;9.174;2023-02-03T01:38:47;7.70;93.70
7562;DHT22;3822;48.784;9.174;2023-02-03T01:41:18;7.70;93.70
7562;DHT22;3822;48.784;9.174;2023-02-03T01:43:47;7.70;93.70
7562;DHT22;3822;48.784;9.174;2023-02-03T01:48:50;7.70;93.70
7562;DHT22;3822;48.784;9.174;2023-02-03T01:51:19;7.70;93.70
7562;DHT22;3822;48.784;9.174;2023-02-03T01:53:48;7.70;93.80
7562;DHT22;3822;48.784;9.174;2023-02-03T01:56:15;7.80;93.80
7562;DHT22;3822;48.784;9.174;2023-02-03T01:58:42;7.80;93.80
7562;DHT22;3822;48.784;9.174;2023-02-03T02:01:10;7.80;93.80
7562;DHT22;3822;48.784;9.174;2023-02-03T02:03:41;7.80;93.80
7562;DHT22;3822;48.784;9.174;2023-02-03T02:06:11;7.80;93.80
7562;DHT22;3822;48.784;9.174;2023-02-03T02:08:39;7.80;93.80
7562;DHT22;3822;48.784;9.174;2023-02-03T02:11:07;7.80;93.80
7562;DHT22;3822;48.784;9.174;2023-02-03T02:13:34;7.80;93.80
7562;DHT22;3822;48.784;9.174;2023-02-03T02:21:30;7.80;93.80
7562;DHT22;3822;48.784;9.174;2023-02-03T02:29:49;7.90;93.90
7562;DHT22;3822;48.784;9.174;2023-02-03T02:32:33;7.90;93.90
7562;DHT22;3822;48.784;9.174;2023-02-03T02:35:09;7.90;93.90
7562;DHT22;3822;48.784;9.174;2023-02-03T02:40:31;7.90;93.90
7562;DHT22;3822;48.784;9.174;2023-02-03T02:43:02;7.90;93.90
7562;DHT22;3822;48.784;9.174;2023-02-03T02:45:42;7.90;93.90
7562;DHT22;3822;48.784;9.174;2023-02-03T02:48:16;7.90;93.90
7562;DHT22;3822;48.784;9.174;2023-02-03T02:50:45;7.90;94.00
7562;DHT22;3822;48.784;9.174;2023-02-03T02:53:13;7.90;94.00
7562;DHT22;3822;48.784;9.174;2023-02-03T02:55:40;7.80;94.00
7562;DHT22;3822;48.784;9.174;2023-02-03T02:58:09;7.90;94.10
7562;DHT22;3822;48.784;9.174;2023-02-03T03:00:37;7.80;94.10
7562;DHT22;3822;48.784;9.174;2023-02-03T03:03:12;7.90;94.10
7562;DHT22;3822;48.784;9.174;2023-02-03T03:05:42;7.90;94.20
7562;DHT22;3822;48.784;9.174;2023-02-03T03:08:12;7.80;94.10
7562;DHT22;3822;48.784;9.174;2023-02-03T03:10:40;7.90;94.20
7562;DHT22;3822;48.784;9.174;2023-02-03T03:13:09;7.80;94.20
7562;DHT22;3822;48.784;9.174;2023-02-03T03:15:38;7.80;94.30
7562;DHT22;3822;48.784;9.174;2023-02-03T03:20:44;7.90;94.30
7562;DHT22;3822;48.784;9.174;2023-02-03T03:23:46;7.90;94.30
7562;DHT22;3822;48.784;9.174;2023-02-03T03:28:55;7.90;94.30
7562;DHT22;3822;48.784;9.174;2023-02-03T03:31:35;7.90;94.30
7562;DHT22;3822;48.784;9.174;2023-02-03T03:34:01;7.90;94.30
7562;DHT22;3822;48.784;9.174;2023-02-03T03:36:32;7.90;94.30
7562;DHT22;3822;48.784;9.174;2023-02-03T03:44:29;7.80;94.30
7562;DHT22;3822;48.784;9.174;2023-02-03T03:47:10;7.80;94.30
7562;DHT22;3822;48.784;9.174;2023-02-03T03:49:39;7.80;94.30
7562;DHT22;3822;48.784;9.174;2023-02-03T03:52:11;7.80;94.30
7562;DHT22;3822;48.784;9.174;2023-02-03T03:54:40;7.80;94.30
7562;DHT22;3822;48.784;9.174;2023-02-03T03:57:15;7.80;94.30
7562;DHT22;3822;48.784;9.174;2023-02-03T03:59:48;7.90;94.30
7562;DHT22;3822;48.784;9.174;2023-02-03T04:02:15;7.80;94.30
7562;DHT22;3822;48.784;9.174;2023-02-03T04:04:43;7.80;94.30
7562;DHT22;3822;48.784;9.174;2023-02-03T04:07:11;7.80;94.30
7562;DHT22;3822;48.784;9.174;2023-02-03T04:09:37;7.90;94.30
7562;DHT22;3822;48.784;9.174;2023-02-03T04:12:06;7.90;94.30
7562;DHT22;3822;48.784;9.174;2023-02-03T04:14:38;7.90;94.30
7562;DHT22;3822;48.784;9.174;2023-02-03T04:17:05;7.90;94.30
7562;DHT22;3822;48.784;9.174;2023-02-03T04:19:32;7.90;94.30
7562;DHT22;3822;48.784;9.174;2023-02-03T04:21:58;7.90;94.30
7562;DHT22;3822;48.784;9.174;2023-02-03T04:24:24;8.00;94.20
7562;DHT22;3822;48.784;9.174;2023-02-03T04:26:51;7.90;94.20
7562;DHT22;3822;48.784;9.174;2023-02-03T04:29:19;8.00;94.20
7562;DHT22;3822;48.784;9.174;2023-02-03T04:31:45;8.00;94.30
7562;DHT22;3822;48.784;9.174;2023-02-03T04:34:11;8.00;94.40
7562;DHT22;3822;48.784;9.174;2023-02-03T04:36:38;8.00;94.40
7562;DHT22;3822;48.784;9.174;2023-02-03T04:39:04;8.00;94.50
7562;DHT22;3822;48.784;9.174;2023-02-03T04:41:30;8.00;94.50
7562;DHT22;3822;48.784;9.174;2023-02-03T04:43:59;7.90;94.50
7562;DHT22;3822;48.784;9.174;2023-02-03T04:46:25;7.90;94.60
7562;DHT22;3822;48.784;9.174;2023-02-03T04:48:52;7.90;94.70
7562;DHT22;3822;48.784;9.174;2023-02-03T04:51:18;7.90;94.80
7562;DHT22;3822;48.784;9.174;2023-02-03T04:53:44;7.90;94.80
7562;DHT22;3822;48.784;9.174;2023-02-03T04:56:10;7.90;94.90
7562;DHT22;3822;48.784;9.174;2023-02-03T04:58:37;7.90;95.00
7562;DHT22;3822;48.784;9.174;2023-02-03T05:01:07;7.90;95.10
7562;DHT22;3822;48.784;9.174;2023-02-03T05:03:34;7.80;95.10
7562;DHT22;3822;48.784;9.174;2023-02-03T05:06:00;7.80;95.20
7562;DHT22;3822;48.784;9.174;2023-02-03T05:08:28;7.80;95.20
7562;DHT22;3822;48.784;9.174;2023-02-03T05:10:55;7.80;95.30
7562;DHT22;3822;48.784;9.174;2023-02-03T05:13:21;7.90;95.30
7562;DHT22;3822;48.784;9.174;2023-02-03T05:15:48;7.90;95.40
7562;DHT22;3822;48.784;9.174;2023-02-03T05:18:14;7.80;95.40
7562;DHT22;3822;48.784;9.174;2023-02-03T05:20:40;7.80;95.50
7562;DHT22;3822;48.784;9.174;2023-02-03T05:23:06;7.80;95.50
7562;DHT22;3822;48.784;9.174;2023-02-03T05:25:33;7.90;95.60
7562;DHT22;3822;48.784;9.174;2023-02-03T05:27:59;7.80;95.60
7562;DHT22;3822;48.784;9.174;2023-02-03T05:30:26;7.80;95.70
7562;DHT22;3822;48.784;9.174;2023-02-03T05:32:53;7.80;95.70
7562;DHT22;3822;48.784;9.174;2023-02-03T05:35:19;7.80;95.80
7562;DHT22;3822;48.784;9.174;2023-02-03T05:37:45;7.80;95.80
7562;DHT22;3822;48.784;9.174;2023-02-03T05:40:12;7.70;95.90
7562;DHT22;3822;48.784;9.174;2023-02-03T05:42:57;7.70;95.90
7562;DHT22;3822;48.784;9.174;2023-02-03T05:45:23;7.70;96.00
7562;DHT22;3822;48.784;9.174;2023-02-03T05:47:50;7.70;96.00
7562;DHT22;3822;48.784;9.174;2023-02-03T05:50:17;7.70;96.00
7562;DHT22;3822;48.784;9.174;2023-02-03T05:52:43;7.70;96.10
7562;DHT22;3822;48.784;9.174;2023-02-03T05:55:09;8.00;96.30
7562;DHT22;3822;48.784;9.174;2023-02-03T05:57:35;7.60;96.20
7562;DHT22;3822;48.784;9.174;2023-02-03T06:00:02;7.60;96.20
7562;DHT22;3822;48.784;9.174;2023-02-03T06:02:28;7.60;96.30
7562;DHT22;3822;48.784;9.174;2023-02-03T06:04:55;7.60;96.30
7562;DHT22;3822;48.784;9.174;2023-02-03T06:07:21;7.60;96.30
7562;DHT22;3822;48.784;9.174;2023-02-03T06:09:47;7.60;96.30
7562;DHT22;3822;48.784;9.174;2023-02-03T06:12:14;7.60;96.30
7562;DHT22;3822;48.784;9.174;2023-02-03T06:14:40;7.60;96.30
7562;DHT22;3822;48.784;9.174;2023-02-03T06:19:39;7.60;96.30
7562;DHT22;3822;48.784;9.174;2023-02-03T06:27:36;7.60;96.30
7562;DHT22;3822;48.784;9.174;2023-02-03T06:30:03;7.60;96.30
7562;DHT22;3822;48.784;9.174;2023-02-03T06:32:49;7.60;96.20
7562;DHT22;3822;48.784;9.174;2023-02-03T06:35:16;7.60;96.20
7562;DHT22;3822;48.784;9.174;2023-02-03T06:37:42;7.70;96.20
7562;DHT22;3822;48.784;9.174;2023-02-03T06:40:10;7.70;96.20
7562;DHT22;3822;48.784;9.174;2023-02-03T06:42:43;7.70;96.20
7562;DHT22;3822;48.784;9.174;2023-02-03T06:45:11;7.70;96.10
7562;DHT22;3822;48.784;9.174;2023-02-03T06:47:40;7.70;96.10
7562;DHT22;3822;48.784;9.174;2023-02-03T06:50:08;7.70;96.10
7562;DHT22;3822;48.784;9.174;2023-02-03T06:52:35;7.70;96.10
7562;DHT22;3822;48.784;9.174;2023-02-03T06:55:02;7.70;96.10
7562;DHT22;3822;48.784;9.174;2023-02-03T06:57:29;7.70;96.10
7562;DHT22;3822;48.784;9.174;2023-02-03T06:59:55;7.70;96.10
7562;DHT22;3822;48.784;9.174;2023-02-03T07:02:21;7.70;96.10
7562;DHT22;3822;48.784;9.174;2023-02-03T07:04:48;7.70;96.10
7562;DHT22;3822;48.784;9.174;2023-02-03T07:07:14;7.70;96.10
7562;DHT22;3822;48.784;9.174;2023-02-03T07:09:40;7.70;96.10
7562;DHT22;3822;48.784;9.174;2023-02-03T07:12:07;10.00;96.60
7562;DHT22;3822;48.784;9.174;2023-02-03T07:14:34;7.70;96.10
7562;DHT22;3822;48.784;9.174;2023-02-03T07:17:01;7.70;96.20
7562;DHT22;3822;48.784;9.174;2023-02-03T07:19:28;7.70;96.20
7562;DHT22;3822;48.784;9.174;2023-02-03T07:21:54;7.70;96.20
7562;DHT22;3822;48.784;9.174;2023-02-03T07:24:20;7.70;96.10
7562;DHT22;3822;48.784;9.174;2023-02-03T07:26:47;7.70;96.10
7562;DHT22;3822;48.784;9.174;2023-02-03T07:29:14;7.70;96.20
7562;DHT22;3822;48.784;9.174;2023-02-03T07:31:46;7.70;96.20
7562;DHT22;3822;48.784;9.174;2023-02-03T07:34:13;7.70;96.20
7562;DHT22;3822;48.784;9.174;2023-02-03T07:36:39;7.60;96.20
7562;DHT22;3822;48.784;9.174;2023-02-03T07:39:06;7.60;96.20
7562;DHT22;3822;48.784;9.174;2023-02-03T07:41:32;7.70;96.30
7562;DHT22;3822;48.784;9.174;2023-02-03T07:43:58;7.60;96.30
7562;DHT22;3822;48.784;9.174;2023-02-03T07:46:25;7.60;96.30
7562;DHT22;3822;48.784;9.174;2023-02-03T07:48:51;7.60;96.40
7562;DHT22;3822;48.784;9.174;2023-02-03T07:51:17;7.60;96.30
7562;DHT22;3822;48.784;9.174;2023-02-03T07:53:44;7.60;96.30
7562;DHT22;3822;48.784;9.174;2023-02-03T07:56:10;7.60;96.40
7562;DHT22;3822;48.784;9.174;2023-02-03T07:58:37;7.60;96.40
7562;DHT22;3822;48.784;9.174;2023-02-03T08:01:10;7.60;96.40
7562;DHT22;3822;48.784;9.174;2023-02-03T08:03:38;7.50;96.40
7562;DHT22;3822;48.784;9.174;2023-02-03T08:06:06;7.50;96.30
7562;DHT22;3822;48.784;9.174;2023-02-03T08:08:33;7.50;96.70
7562;DHT22;3822;48.784;9.174;2023-02-03T08:11:00;7.50;96.40
7562;DHT22;3822;48.784;9.174;2023-02-03T08:13:26;7.50;96.40
7562;DHT22;3822;48.784;9.174;2023-02-03T08:15:53;7.50;96.40
7562;DHT22;3822;48.784;9.174;2023-02-03T08:18:19;7.50;96.50
7562;DHT22;3822;48.784;9.174;2023-02-03T08:20:46;7.50;96.50
7562;DHT22;3822;48.784;9.174;2023-02-03T08:23:13;7.50;96.50
7562;DHT22;3822;48.784;9.174;2023-02-03T08:25:39;7.50;96.60
7562;DHT22;3822;48.784;9.174;2023-02-03T08:30:51;7.60;96.70
7562;DHT22;3822;48.784;9.174;2023-02-03T08:33:17;7.60;96.80
7562;DHT22;3822;48.784;9.174;2023-02-03T08:35:44;7.60;96.70
7562;DHT22;3822;48.784;9.174;2023-02-03T08:38:11;7.60;96.80
7562;DHT22;3822;48.784;9.174;2023-02-03T08:40:38;7.60;96.90
7562;DHT22;3822;48.784;9.174;2023-02-03T08:43:04;7.60;96.90
7562;DHT22;3822;48.784;9.174;2023-02-03T08:45:30;7.60;97.00
7562;DHT22;3822;48.784;9.174;2023-02-03T08:47:58;7.60;97.00
7562;DHT22;3822;48.784;9.174;2023-02-03T08:50:26;7.60;97.10
7562;DHT22;3822;48.784;9.174;2023-02-03T08:52:53;7.60;97.10
7562;DHT22;3822;48.784;9.174;2023-02-03T08:55:20;7.60;97.10
7562;DHT22;3822;48.784;9.174;2023-02-03T08:57:46;7.60;97.10
7562;DHT22;3822;48.784;9.174;2023-02-03T09:00:13;7.60;97.20
7562;DHT22;3822;48.784;9.174;2023-02-03T09:02:41;7.70;97.20
7562;DHT22;3822;48.784;9.174;2023-02-03T09:05:07;7.70;97.20
7562;DHT22;3822;48.784;9.174;2023-02-03T09:07:34;7.70;97.20
7562;DHT22;3822;48.784;9.174;2023-02-03T09:10:00;7.70;97.20
7562;DHT22;3822;48.784;9.174;2023-02-03T09:12:26;7.70;97.30
7562;DHT22;3822;48.784;9.174;2023-02-03T09:14:52;7.70;97.30
7562;DHT22;3822;48.784;9.174;2023-02-03T09:17:19;7.80;97.40
7562;DHT22;3822;48.784;9.174;2023-02-03T09:19:45;7.80;97.50
7562;DHT22;3822;48.784;9.174;2023-02-03T09:22:11;7.80;97.50
7562;DHT22;3822;48.784;9.174;2023-02-03T09:24:40;7.80;97.40
7562;DHT22;3822;48.784;9.174;2023-02-03T09:27:08;7.80;97.50
7562;DHT22;3822;48.784;9.174;2023-02-03T09:29:34;7.80;97.50
7562;DHT22;3822;48.784;9.174;2023-02-03T09:32:00;7.80;97.50
7562;DHT22;3822;48.784;9.174;2023-02-03T09:34:31;7.90;97.60
7562;DHT22;3822;48.784;9.174;2023-02-03T09:36:58;9.50;98.20
7562;DHT22;3822;48.784;9.174;2023-02-03T09:39:24;8.00;97.60
7562;DHT22;3822;48.784;9.174;2023-02-03T09:47:20;8.10;97.60
7562;DHT22;3822;48.784;9.174;2023-02-03T09:49:50;8.10;97.50
7562;DHT22;3822;48.784;9.174;2023-02-03T09:55:28;8.20;97.50
7562;DHT22;3822;48.784;9.174;2023-02-03T09:57:58;8.30;97.50
7562;DHT22;3822;48.784;9.174;2023-02-03T10:00:34;8.30;97.50
7562;DHT22;3822;48.784;9.174;2023-02-03T10:03:06;8.30;97.50
7562;DHT22;3822;48.784;9.174;2023-02-03T10:17:22;8.50;97.50
7562;DHT22;3822;48.784;9.174;2023-02-03T10:20:04;8.50;97.50
7562;DHT22;3822;48.784;9.174;2023-02-03T10:23:00;8.60;97.50
7562;DHT22;3822;48.784;9.174;2023-02-03T10:25:38;8.60;97.50
7562;DHT22;3822;48.784;9.174;2023-02-03T10:28:13;8.70;97.50
7562;DHT22;3822;48.784;9.174;2023-02-03T10:30:43;8.70;97.40
7562;DHT22;3822;48.784;9.174;2023-02-03T10:33:13;8.70;97.30
7562;DHT22;3822;48.784;9.174;2023-02-03T10:38:12;8.80;97.20
7562;DHT22;3822;48.784;9.174;2023-02-03T10:40:54;8.80;97.20
7562;DHT22;3822;48.784;9.174;2023-02-03T10:43:21;8.90;97.10
7562;DHT22;3822;48.784;9.174;2023-02-03T10:46:05;8.90;97.10
7562;DHT22;3822;48.784;9.174;2023-02-03T10:48:32;8.90;97.10
7562;DHT22;3822;48.784;9.174;2023-02-03T10:50:58;8.90;97.10
7562;DHT22;3822;48.784;9.174;2023-02-03T10:53:32;8.90;97.00
7562;DHT22;3822;48.784;9.174;2023-02-03T10:56:01;9.00;97.00
7562;DHT22;3822;48.784;9.174;2023-02-03T10:58:30;9.00;97.00
7562;DHT22;3822;48.784;9.174;2023-02-03T11:01:12;9.10;97.00
7562;DHT22;3822;48.784;9.174;2023-02-03T11:03:43;9.20;97.10
7562;DHT22;3822;48.784;9.174;2023-02-03T11:06:19;10.00;96.90
7562;DHT22;3822;48.784;9.174;2023-02-03T11:08:46;9.40;96.90
7562;DHT22;3822;48.784;9.174;2023-02-03T11:11:29;9.50;96.80
7562;DHT22;3822;48.784;9.174;2023-02-03T11:16:28;9.60;96.60
7562;DHT22;3822;48.784;9.174;2023-02-03T11:18:57;9.60;96.40
7562;DHT22;3822;48.784;9.174;2023-02-03T11:24:21;9.70;96.20
7562;DHT22;3822;48.784;9.174;2023-02-03T11:26:56;9.70;95.90
7562;DHT22;3822;48.784;9.174;2023-02-03T11:29:27;9.60;95.60
7562;DHT22;3822;48.784;9.174;2023-02-03T11:31:57;9.90;95.70
7562;DHT22;3822;48.784;9.174;2023-02-03T11:34:31;9.70;95.50
7562;DHT22;3822;48.784;9.174;2023-02-03T11:37:25;9.60;95.30
7562;DHT22;3822;48.784;9.174;2023-02-03T11:42:38;9.60;95.20
7562;DHT22;3822;48.784;9.174;2023-02-03T11:47:49;9.70;94.80
7562;DHT22;3822;48.784;9.174;2023-02-03T11:53:26;9.60;94.40
7562;DHT22;3822;48.784;9.174;2023-02-03T12:05:09;9.60;93.90
7562;DHT22;3822;48.784;9.174;2023-02-03T12:11:30;9.60;93.80
7562;DHT22;3822;48.784;9.174;2023-02-03T12:17:22;9.60;93.70
7562;DHT22;3822;48.784;9.174;2023-02-03T12:20:04;9.60;93.60
7562;DHT22;3822;48.784;9.174;2023-02-03T12:22:37;9.70;93.70
7562;DHT22;3822;48.784;9.174;2023-02-03T12:31:55;9.70;93.30
7562;DHT22;3822;48.784;9.174;2023-02-03T12:34:36;9.70;93.10
7562;DHT22;3822;48.784;9.174;2023-02-03T12:37:28;9.70;93.00
7562;DHT22;3822;48.784;9.174;2023-02-03T12:40:05;9.70;92.70
7562;DHT22;3822;48.784;9.174;2023-02-03T12:43:05;9.70;92.50
7562;DHT22;3822;48.784;9.174;2023-02-03T12:45:49;9.70;92.40
7562;DHT22;3822;48.784;9.174;2023-02-03T12:48:23;9.70;92.40
7562;DHT22;3822;48.784;9.174;2023-02-03T12:50:59;9.70;92.40
7562;DHT22;3822;48.784;9.174;2023-02-03T12:53:34;9.60;92.30
7562;DHT22;3822;48.784;9.174;2023-02-03T12:56:07;9.60;92.30
7562;DHT22;3822;48.784;9.174;2023-02-03T12:58:59;9.60;92.30
7562;DHT22;3822;48.784;9.174;2023-02-03T13:01:35;9.60;92.20
7562;DHT22;3822;48.784;9.174;2023-02-03T13:04:33;9.60;92.10
7562;DHT22;3822;48.784;9.174;2023-02-03T13:10:54;9.60;92.30
7562;DHT22;3822;48.784;9.174;2023-02-03T13:13:31;9.60;92.40
7562;DHT22;3822;48.784;9.174;2023-02-03T13:16:04;10.20;92.20
7562;DHT22;3822;48.784;9.174;2023-02-03T13:18:38;9.60;92.30
7562;DHT22;3822;48.784;9.174;2023-02-03T13:21:10;9.70;92.30
7562;DHT22;3822;48.784;9.174;2023-02-03T13:23:41;9.70;92.30
7562;DHT22;3822;48.784;9.174;2023-02-03T13:35:24;9.70;92.10
7562;DHT22;3822;48.784;9.174;2023-02-03T13:38:23;9.70;92.20
7562;DHT22;3822;48.784;9.174;2023-02-03T13:40:58;9.60;91.80
7562;DHT22;3822;48.784;9.174;2023-02-03T13:43:36;9.60;91.80
7562;DHT22;3822;48.784;9.174;2023-02-03T13:46:26;9.60;91.80
7562;DHT22;3822;48.784;9.174;2023-02-03T13:48:57;9.60;91.80
7562;DHT22;3822;48.784;9.174;2023-02-03T13:51:37;9.60;91.70
7562;DHT22;3822;48.784;9.174;2023-02-03T13:54:36;9.60;91.80
7562;DHT22;3822;48.784;9.174;2023-02-03T13:59:53;9.60;91.90
7562;DHT22;3822;48.784;9.174;2023-02-03T14:04:56;9.60;92.00
7562;DHT22;3822;48.784;9.174;2023-02-03T14:07:35;9.60;92.00
7562;DHT22;3822;48.784;9.174;2023-02-03T14:20:41;9.60;92.10
7562;DHT22;3822;48.784;9.174;2023-02-03T14:23:16;9.60;92.20
7562;DHT22;3822;48.784;9.174;2023-02-03T14:25:51;9.60;92.20
7562;DHT22;3822;48.784;9.174;2023-02-03T14:28:28;9.60;92.20
7562;DHT22;3822;48.784;9.174;2023-02-03T14:31:10;9.60;92.20
7562;DHT22;3822;48.784;9.174;2023-02-03T14:33:53;9.60;92.20
7562;DHT22;3822;48.784;9.174;2023-02-03T14:36:35;9.60;92.20
7562;DHT22;3822;48.784;9.174;2023-02-03T14:39:40;9.50;92.20
7562;DHT22;3822;48.784;9.174;2023-02-03T14:42:35;9.50;92.20
7562;DHT22;3822;48.784;9.174;2023-02-03T14:54:26;9.40;92.30
7562;DHT22;3822;48.784;9.174;2023-02-03T15:00:25;9.50;92.40
7562;DHT22;3822;48.784;9.174;2023-02-03T15:05:45;9.50;92.50
7562;DHT22;3822;48.784;9.174;2023-02-03T15:11:27;9.50;92.60
7562;DHT22;3822;48.784;9.174;2023-02-03T15:16:57;9.40;92.70
7562;DHT22;3822;48.784;9.174;2023-02-03T15:19:39;9.40;92.90
7562;DHT22;3822;48.784;9.174;2023-02-03T15:22:28;9.70;92.90
7562;DHT22;3822;48.784;9.174;2023-02-03T15:25:00;9.40;92.90
7562;DHT22;3822;48.784;9.174;2023-02-03T15:27:44;9.40;93.00
7562;DHT22;3822;48.784;9.174;2023-02-03T15:33:13;9.40;93.10
7562;DHT22;3822;48.784;9.174;2023-02-03T15:35:44;9.40;93.20
7562;DHT22;3822;48.784;9.174;2023-02-03T15:38:19;8.60;92.90
7562;DHT22;3822;48.784;9.174;2023-02-03T15:40:53;9.40;93.20
7562;DHT22;3822;48.784;9.174;2023-02-03T15:43:35;9.40;93.30
7562;DHT22;3822;48.784;9.174;2023-02-03T15:46:07;9.50;93.40
7562;DHT22;3822;48.784;9.174;2023-02-03T15:48:51;9.40;93.40
7562;DHT22;3822;48.784;9.174;2023-02-03T15:51:30;9.40;93.40
7562;DHT22;3822;48.784;9.174;2023-02-03T15:54:21;9.40;93.40
7562;DHT22;3822;48.784;9.174;2023-02-03T15:57:01;9.50;93.50
7562;DHT22;3822;48.784;9.174;2023-02-03T15:59:39;9.30;93.40
7562;DHT22;3822;48.784;9.174;2023-02-03T16:02:16;9.70;93.60
7562;DHT22;3822;48.784;9.174;2023-02-03T16:04:44;9.30;93.50
7562;DHT22;3822;48.784;9.174;2023-02-03T16:07:20;9.30;93.60
7562;DHT22;3822;48.784;9.174;2023-02-03T16:09:56;9.40;93.60
7562;DHT22;3822;48.784;9.174;2023-02-03T16:12:25;9.30;93.60
7562;DHT22;3822;48.784;9.174;2023-02-03T16:14:55;9.40;93.70
7562;DHT22;3822;48.784;9.174;2023-02-03T16:17:30;9.30;93.70
7562;DHT22;3822;48.784;9.174;2023-02-03T16:22:42;9.40;94.00
7562;DHT22;3822;48.784;9.174;2023-02-03T16:25:16;9.30;94.20
7562;DHT22;3822;48.784;9.174;2023-02-03T16:27:54;9.20;94.40
7562;DHT22;3822;48.784;9.174;2023-02-03T16:31:02;9.40;94.70
7562;DHT22;3822;48.784;9.174;2023-02-03T16:34:17;9.20;94.80
7562;DHT22;3822;48.784;9.174;2023-02-03T16:37:23;9.20;95.00
7562;DHT22;3822;48.784;9.174;2023-02-03T16:40:10;9.10;95.00
7562;DHT22;3822;48.784;9.174;2023-02-03T16:42:57;9.10;95.20
7562;DHT22;3822;48.784;9.174;2023-02-03T16:45:43;9.10;95.30
7562;DHT22;3822;48.784;9.174;2023-02-03T16:48:28;9.00;95.40
7562;DHT22;3822;48.784;9.174;2023-02-03T16:51:14;9.00;95.50
7562;DHT22;3822;48.784;9.174;2023-02-03T16:53:44;9.00;95.60
7562;DHT22;3822;48.784;9.174;2023-02-03T16:56:13;9.00;95.60
7562;DHT22;3822;48.784;9.174;2023-02-03T16:58:40;9.00;95.70
7562;DHT22;3822;48.784;9.174;2023-02-03T17:01:07;9.00;95.70
7562;DHT22;3822;48.784;9.174;2023-02-03T17:03:37;9.00;95.90
7562;DHT22;3822;48.784;9.174;2023-02-03T17:06:07;9.10;95.90
7562;DHT22;3822;48.784;9.174;2023-02-03T17:08:35;9.00;95.90
7562;DHT22;3822;48.784;9.174;2023-02-03T17:11:11;9.00;96.00
7562;DHT22;3822;48.784;9.174;2023-02-03T17:13:41;9.00;96.00
7562;DHT22;3822;48.784;9.174;2023-02-03T17:16:12;9.00;96.00
7562;DHT22;3822;48.784;9.174;2023-02-03T17:18:42;9.00;96.10
7562;DHT22;3822;48.784;9.174;2023-02-03T17:21:12;9.00;96.00
7562;DHT22;3822;48.784;9.174;2023-02-03T17:23:50;9.00;96.00
7562;DHT22;3822;48.784;9.174;2023-02-03T17:26:17;9.00;96.00
7562;DHT22;3822;48.784;9.174;2023-02-03T17:28:44;9.10;96.10
7562;DHT22;3822;48.784;9.174;2023-02-03T17:31:15;9.00;96.00
7562;DHT22;3822;48.784;9.174;2023-02-03T17:37:06;9.00;96.00
7562;DHT22;3822;48.784;9.174;2023-02-03T17:42:39;9.00;95.90
7562;DHT22;3822;48.784;9.174;2023-02-03T17:45:06;9.00;95.90
7562;DHT22;3822;48.784;9.174;2023-02-03T17:47:33;9.00;95.90
7562;DHT22;3822;48.784;9.174;2023-02-03T17:49:59;9.00;95.90
7562;DHT22;3822;48.784;9.174;2023-02-03T17:52:27;9.00;95.80
7562;DHT22;3822;48.784;9.174;2023-02-03T17:54:54;9.10;95.80
7562;DHT22;3822;48.784;9.174;2023-02-03T17:57:20;9.00;95.80
7562;DHT22;3822;48.784;9.174;2023-02-03T17:59:47;9.00;95.70
7562;DHT22;3822;48.784;9.174;2023-02-03T18:02:13;9.10;95.70
7562;DHT22;3822;48.784;9.174;2023-02-03T18:04:39;9.10;95.70
7562;DHT22;3822;48.784;9.174;2023-02-03T18:07:07;9.10;95.70
7562;DHT22;3822;48.784;9.174;2023-02-03T18:09:33;10.00;95.50
7562;DHT22;3822;48.784;9.174;2023-02-03T18:12:00;9.20;95.60
7562;DHT22;3822;48.784;9.174;2023-02-03T18:14:26;9.20;95.60
7562;DHT22;3822;48.784;9.174;2023-02-03T18:16:53;9.20;95.60
7562;DHT22;3822;48.784;9.174;2023-02-03T18:19:19;9.20;95.50
7562;DHT22;3822;48.784;9.174;2023-02-03T18:21:46;9.20;95.50
7562;DHT22;3822;48.784;9.174;2023-02-03T18:24:12;9.20;95.50
7562;DHT22;3822;48.784;9.174;2023-02-03T18:26:50;9.20;95.70
7562;DHT22;3822;48.784;9.174;2023-02-03T18:29:17;9.30;95.50
7562;DHT22;3822;48.784;9.174;2023-02-03T18:31:45;9.30;95.50
7562;DHT22;3822;48.784;9.174;2023-02-03T18:34:13;9.30;95.50
7562;DHT22;3822;48.784;9.174;2023-02-03T18:36:40;9.40;95.50
7562;DHT22;3822;48.784;9.174;2023-02-03T18:39:07;9.30;95.40
7562;DHT22;3822;48.784;9.174;2023-02-03T18:41:33;9.30;95.50
7562;DHT22;3822;48.784;9.174;2023-02-03T18:44:01;9.30;95.50
7562;DHT22;3822;48.784;9.174;2023-02-03T18:46:46;9.30;95.50
7562;DHT22;3822;48.784;9.174;2023-02-03T18:49:13;9.40;95.60
7562;DHT22;3822;48.784;9.174;2023-02-03T18:51:40;9.30;95.70
7562;DHT22;3822;48.784;9.174;2023-02-03T18:54:06;9.30;95.80
7562;DHT22;3822;48.784;9.174;2023-02-03T18:56:33;9.40;95.90
7562;DHT22;3822;48.784;9.174;2023-02-03T18:59:10;9.30;95.90
7562;DHT22;3822;48.784;9.174;2023-02-03T19:01:37;9.30;96.10
7562;DHT22;3822;48.784;9.174;2023-02-03T19:04:04;9.30;96.20
7562;DHT22;3822;48.784;9.174;2023-02-03T19:06:32;9.30;96.30
7562;DHT22;3822;48.784;9.174;2023-02-03T19:09:00;9.30;96.40
7562;DHT22;3822;48.784;9.174;2023-02-03T19:11:27;9.30;96.40
7562;DHT22;3822;48.784;9.174;2023-02-03T19:13:54;9.30;96.50
7562;DHT22;3822;48.784;9.174;2023-02-03T19:16:20;9.30;96.50
7562;DHT22;3822;48.784;9.174;2023-02-03T19:18:48;9.20;96.50
7562;DHT22;3822;48.784;9.174;2023-02-03T19:21:14;9.20;96.50